Hlavní strana
METAR-TAF:

METAR-TAF

Letiště :

Kärdla, Estonsko

zeměpisná šířka: 58-59N, zeměpisná délka: 022-49E, výška: 5 m

Aktuální stav počasí

Zpráva byla vytvořena před 1 hodinou a 54 minutami, v 14:50 UTC
Východní vítr 6 kt
Teplota 9°C
Vlhkost vzduchu 66%
Tlak 1025 hPa
Viditelnost 10 km a více
Žádná oblačnost pod 1500 m, nevyskytují se cumulonimby.

METAR: EEKA 211450Z 08006KT CAVOK 09/03 Q1025

Čas: 19:44 (16:44 UTC)

Předpověď počasí

Zpráva byla vytvořena před 5 hodinami a 44 minutami, v 11:00 UTC
Předpověď platná od 21 v 12 UTC do 21 v 18 UTC
Východní vítr 10 kt
Viditelnost 10 km a více
Žádná oblačnost pod 1500 m, nevyskytují se cumulonimby.

TAF: EEKA 211100Z 2112/2118 10010KT CAVOK

Stav a předpovědi počasí z více než 4 000 letišť (zprávy METAR a TAF).

Červené a žluté tečky na mapě představují dostupné meteorologické stanice.

Když kurzor umístíte na tečku, zobrazí se název stanice.

Pak kliknutím zobrazíte stav a předpověď počasí.

Chcete-li změnit mapu, kliknutím na zelené tlačítko se znaménkem +mapu přiblížíte, kliknutím na zelené tlačítko se znaménkem – mapu oddálíte a kliknutím na zelené šipky přejdete na sousední mapy.


METAR-TAF: